Time;durP1;ratioP1;P1;durP2;ratioP2;P2;SDS_P1;SDS_P2;PMS_P1;PMS_P2;Temp;Humidity;BMP_temperature;BMP_pressure;BME280_temperature;BME280_humidity;BME280_pressure;Samples;Min_cycle;Max_cycle;Signal;HPM_P1;HPM_P2
2022/01/09 00:00:36;;;;;;;0.32;0.20;;;20.90;45.70;;;;;;4894033;29;20079;-83
2022/01/09 00:03:02;;;;;;;0.43;0.10;;;21.00;45.80;;;;;;4894976;29;20059;-82
2022/01/09 00:05:27;;;;;;;1.02;0.20;;;21.00;45.80;;;;;;4894073;29;20040;-83
2022/01/09 00:07:53;;;;;;;1.15;0.20;;;22.30;46.60;;;;;;4894473;29;20457;-82
2022/01/09 00:10:19;;;;;;;1.67;0.30;;;20.90;45.80;;;;;;4894543;29;20047;-82
2022/01/09 00:12:44;;;;;;;0.40;0.10;;;20.90;45.80;;;;;;4892902;29;20151;-82
2022/01/09 00:15:10;;;;;;;0.45;0.20;;;20.90;45.80;;;;;;4894336;29;20092;-82
2022/01/09 00:17:36;;;;;;;1.00;0.20;;;20.90;45.80;;;;;;4894285;29;20044;-82
2022/01/09 00:20:02;;;;;;;0.43;0.17;;;20.90;45.80;;;;;;4893476;29;20045;-82
2022/01/09 00:22:44;;;;;;;0.45;0.20;;;20.90;45.90;;;;;;4894387;29;20052;-82
2022/01/09 00:25:10;;;;;;;0.70;0.10;;;20.90;45.80;;;;;;4893353;29;20108;-82
2022/01/09 00:27:36;;;;;;;2.22;0.25;;;20.90;45.90;;;;;;4893513;29;20470;-82
2022/01/09 00:30:06;;;;;;;0.22;0.10;;;20.90;45.90;;;;;;4894190;29;20068;-82
2022/01/09 00:32:31;;;;;;;0.55;0.20;;;20.90;45.90;;;;;;4915841;23;20065;-83
2022/01/09 00:34:57;;;;;;;0.55;0.20;;;20.90;45.90;;;;;;4931268;29;20424;-82
2022/01/09 00:37:23;;;;;;;1.00;0.20;;;20.90;46.00;;;;;;4932222;29;20047;-83
2022/01/09 00:39:48;;;;;;;0.65;0.20;;;22.30;46.70;;;;;;4951823;28;20058;-83
2022/01/09 00:42:14;;;;;;;0.60;0.20;;;20.90;46.00;;;;;;4969715;28;20105;-82
2022/01/09 00:44:39;;;;;;;0.45;0.20;;;20.90;45.90;;;;;;4971831;28;20199;-83
2022/01/09 00:47:05;;;;;;;0.32;0.17;;;20.90;45.90;;;;;;4969619;28;20066;-83
2022/01/09 00:49:30;;;;;;;1.58;0.40;;;20.90;46.00;;;;;;4969740;28;20454;-83
2022/01/09 00:51:56;;;;;;;0.35;0.10;;;20.90;46.00;;;;;;4970558;28;20141;-83
2022/01/09 00:54:22;;;;;;;0.28;0.10;;;20.80;45.90;;;;;;4970140;28;20046;-82
2022/01/09 00:56:48;;;;;;;0.70;0.20;;;20.90;46.00;;;;;;4969345;28;20051;-83
2022/01/09 00:59:13;;;;;;;0.50;0.20;;;22.40;46.80;;;;;;4970689;28;20054;-82
2022/01/09 01:01:39;;;;;;;0.20;0.10;;;20.90;46.00;;;;;;4970075;28;20549;-82
2022/01/09 01:04:05;;;;;;;0.50;0.20;;;20.90;46.00;;;;;;4969215;28;20392;-83
2022/01/09 01:06:30;;;;;;;0.70;0.20;;;21.50;46.30;;;;;;4970048;28;20051;-82
2022/01/09 01:08:56;;;;;;;0.25;0.15;;;20.90;46.00;;;;;;4969333;28;20047;-82
2022/01/09 01:11:22;;;;;;;0.60;0.15;;;20.90;46.10;;;;;;4969742;28;20049;-82
2022/01/09 01:13:48;;;;;;;0.57;0.22;;;20.80;45.90;;;;;;4969613;28;20369;-82
2022/01/09 01:16:13;;;;;;;0.77;0.20;;;22.30;46.70;;;;;;4969079;28;20477;-82
2022/01/09 01:18:43;;;;;;;1.77;0.30;;;20.80;46.00;;;;;;4969683;28;20050;-82
2022/01/09 01:21:08;;;;;;;0.82;0.10;;;20.80;46.00;;;;;;4969662;28;20051;-82
2022/01/09 01:23:34;;;;;;;0.68;0.13;;;20.80;46.00;;;;;;4968163;28;20054;-82
2022/01/09 01:26:01;;;;;;;1.13;0.10;;;20.80;46.00;;;;;;4969675;28;20066;-82
2022/01/09 01:28:27;;;;;;;1.05;0.10;;;20.80;46.00;;;;;;4969922;28;20051;-82
2022/01/09 01:30:53;;;;;;;0.20;0.10;;;20.80;46.10;;;;;;4968861;28;20038;-82
2022/01/09 01:33:18;;;;;;;0.98;0.20;;;20.90;46.10;;;;;;4969745;28;20063;-82
2022/01/09 01:35:44;;;;;;;0.20;0.10;;;20.80;46.00;;;;;;4969890;28;20133;-82
2022/01/09 01:38:10;;;;;;;0.47;0.20;;;20.80;46.10;;;;;;4968858;28;20453;-82
2022/01/09 01:40:38;;;;;;;0.55;0.20;;;20.80;46.00;;;;;;4969440;28;20043;-82
2022/01/09 01:43:03;;;;;;;0.40;0.20;;;20.80;46.10;;;;;;4969802;28;20114;-83
2022/01/09 01:45:29;;;;;;;0.65;0.20;;;20.80;46.10;;;;;;4968997;28;20138;-83
2022/01/09 01:48:05;;;;;;;0.90;0.20;;;20.80;46.10;;;;;;4968821;28;20090;-83
2022/01/09 01:50:35;;;;;;;0.65;0.20;;;21.30;46.50;;;;;;4969196;28;20138;-83
2022/01/09 01:53:01;;;;;;;0.57;0.20;;;20.80;46.10;;;;;;4968713;28;20439;-83
2022/01/09 01:55:28;;;;;;;0.95;0.22;;;20.80;46.10;;;;;;4953866;28;20053;-83
2022/01/09 01:57:54;;;;;;;1.55;0.35;;;20.80;46.10;;;;;;4969578;28;20414;-83
2022/01/09 02:00:20;;;;;;;0.38;0.10;;;20.80;46.10;;;;;;4966615;28;20533;-83
2022/01/09 02:02:45;;;;;;;0.68;0.10;;;21.20;46.40;;;;;;4972122;28;20058;-82
2022/01/09 02:05:11;;;;;;;0.30;0.10;;;20.80;46.10;;;;;;4968825;28;20105;-83
2022/01/09 02:07:38;;;;;;;0.60;0.10;;;20.80;46.10;;;;;;4969362;28;20566;-83
2022/01/09 02:10:07;;;;;;;0.40;0.10;;;20.80;46.10;;;;;;4969339;28;20181;-83
2022/01/09 02:12:35;;;;;;;0.80;0.20;;;20.80;46.20;;;;;;4968575;28;20043;-83
2022/01/09 02:15:01;;;;;;;0.20;0.10;;;20.80;46.10;;;;;;4969140;28;20047;-84
2022/01/09 02:17:26;;;;;;;0.30;0.10;;;21.80;46.70;;;;;;4969291;28;20054;-83
2022/01/09 02:19:56;;;;;;;0.43;0.13;;;21.60;46.60;;;;;;4968380;28;20565;-83
2022/01/09 02:22:24;;;;;;;0.30;0.15;;;20.80;46.20;;;;;;4969604;28;20050;-82
2022/01/09 02:24:50;;;;;;;0.45;0.00;;;20.80;46.10;;;;;;4969146;28;20074;-83
2022/01/09 02:27:16;;;;;;;0.65;0.20;;;20.80;46.20;;;;;;4964261;28;20058;-82
2022/01/09 02:29:41;;;;;;;0.57;0.17;;;20.70;46.10;;;;;;4959383;28;20069;-82
2022/01/09 02:32:07;;;;;;;0.47;0.10;;;20.70;46.20;;;;;;4968860;28;20129;-82
2022/01/09 02:34:33;;;;;;;0.30;0.10;;;20.70;46.10;;;;;;4968416;28;20171;-82
2022/01/09 02:36:59;;;;;;;0.40;0.13;;;20.70;46.20;;;;;;4969125;28;20047;-82
2022/01/09 02:39:24;;;;;;;0.90;0.13;;;20.70;46.20;;;;;;4968956;28;20074;-83
2022/01/09 02:41:50;;;;;;;0.57;0.10;;;20.70;46.20;;;;;;4968466;28;20043;-82
2022/01/09 02:44:16;;;;;;;0.60;0.20;;;20.70;46.20;;;;;;4969022;28;20047;-82
2022/01/09 02:49:16;;;;;;;0.10;0.10;;;20.70;46.20;;;;;;4971513;28;20042;-82
2022/01/09 02:51:45;;;;;;;0.10;0.10;;;21.00;46.60;;;;;;4972250;28;20097;-82
2022/01/09 02:56:54;;;;;;;0.85;0.20;;;20.70;46.20;;;;;;4972364;28;20059;-83
2022/01/09 02:59:20;;;;;;;0.40;0.25;;;20.70;46.20;;;;;;4972123;28;20106;-82
2022/01/09 03:01:45;;;;;;;0.10;0.10;;;20.70;46.30;;;;;;4955324;28;20055;-83
2022/01/09 03:04:11;;;;;;;0.80;0.10;;;20.70;46.20;;;;;;4972363;28;20058;-83
2022/01/09 03:06:36;;;;;;;0.50;0.10;;;20.70;46.30;;;;;;4971906;28;20647;-83
2022/01/09 03:09:05;;;;;;;0.40;0.20;;;20.70;46.30;;;;;;4971178;28;20046;-83
2022/01/09 03:11:31;;;;;;;0.77;0.17;;;20.70;46.30;;;;;;4971846;28;20089;-83
2022/01/09 03:13:57;;;;;;;0.45;0.20;;;20.70;46.30;;;;;;4974534;28;20055;-82
2022/01/09 03:16:22;;;;;;;0.10;0.10;;;20.70;46.30;;;;;;4971433;28;20533;-83
2022/01/09 03:18:48;;;;;;;0.57;0.20;;;20.70;46.30;;;;;;4970913;28;20058;-82
2022/01/09 03:21:13;;;;;;;0.40;0.10;;;20.70;46.30;;;;;;4971742;28;20074;-82
2022/01/09 03:23:39;;;;;;;0.00;0.00;;;20.70;46.30;;;;;;4971158;28;20082;-83
2022/01/09 03:26:07;;;;;;;0.40;0.10;;;20.70;46.30;;;;;;4972034;28;20042;-83
2022/01/09 03:28:33;;;;;;;0.20;0.10;;;20.70;46.30;;;;;;4972125;28;20046;-83
2022/01/09 03:30:58;;;;;;;0.75;0.20;;;20.70;46.30;;;;;;4954978;28;20051;-84
2022/01/09 03:33:24;;;;;;;0.52;0.20;;;20.70;46.30;;;;;;4971414;28;20066;-83
2022/01/09 03:35:49;;;;;;;0.60;0.10;;;21.00;46.50;;;;;;4971453;28;20407;-83
2022/01/09 03:38:15;;;;;;;0.30;0.10;;;20.70;46.30;;;;;;4970742;28;20051;-83
2022/01/09 03:40:40;;;;;;;0.30;0.10;;;20.70;46.30;;;;;;4971261;28;20043;-83
2022/01/09 03:43:06;;;;;;;0.43;0.10;;;20.70;46.30;;;;;;4971358;28;20057;-83
2022/01/09 03:45:31;;;;;;;0.57;0.20;;;20.70;46.30;;;;;;4970825;28;20039;-83
2022/01/09 03:47:57;;;;;;;0.90;0.10;;;20.70;46.30;;;;;;4971429;28;20027;-83
2022/01/09 03:50:23;;;;;;;0.80;0.10;;;20.70;46.40;;;;;;4971638;28;20082;-83
2022/01/09 03:52:49;;;;;;;0.43;0.13;;;20.70;46.30;;;;;;4970823;28;20050;-83
2022/01/09 03:55:15;;;;;;;0.10;0.00;;;20.70;46.30;;;;;;4972119;28;20050;-83
2022/01/09 03:57:41;;;;;;;0.28;0.10;;;20.70;46.30;;;;;;4970485;28;20058;-83
2022/01/09 04:00:08;;;;;;;0.38;0.10;;;20.70;46.30;;;;;;4971197;28;20039;-82
2022/01/09 04:02:34;;;;;;;0.20;0.10;;;20.70;46.30;;;;;;4971283;28;20491;-82
2022/01/09 04:05:00;;;;;;;0.43;0.10;;;21.60;46.80;;;;;;4970581;28;20049;-83
2022/01/09 04:07:25;;;;;;;0.20;0.10;;;20.70;46.40;;;;;;4971154;28;20046;-82
2022/01/09 04:09:51;;;;;;;0.38;0.20;;;20.80;46.40;;;;;;4970825;28;20134;-83
2022/01/09 04:12:29;;;;;;;0.20;0.10;;;20.90;46.50;;;;;;4970523;28;20043;-82
2022/01/09 04:14:55;;;;;;;0.75;0.10;;;20.70;46.40;;;;;;4942336;28;20055;-83
2022/01/09 04:17:33;;;;;;;0.55;0.10;;;20.70;46.40;;;;;;4954664;28;20105;-83
2022/01/09 04:19:58;;;;;;;0.25;0.10;;;20.60;46.30;;;;;;4970250;28;20062;-82
2022/01/09 04:22:24;;;;;;;0.52;0.20;;;20.70;46.40;;;;;;4970417;28;20054;-82
2022/01/09 04:24:49;;;;;;;0.22;0.10;;;20.70;47.10;;;;;;4970583;28;20066;-82
2022/01/09 04:27:15;;;;;;;0.70;0.10;;;20.70;46.40;;;;;;4970202;28;20051;-83
2022/01/09 04:29:40;;;;;;;0.98;0.10;;;20.70;46.40;;;;;;4938749;28;20566;-82
2022/01/09 04:32:06;;;;;;;0.73;0.20;;;20.70;46.40;;;;;;4970379;28;20415;-82
2022/01/09 04:34:32;;;;;;;0.17;0.10;;;20.70;46.40;;;;;;4970043;28;20051;-82
2022/01/09 04:36:59;;;;;;;1.33;0.10;;;20.70;46.40;;;;;;4970567;28;20037;-82
2022/01/09 04:39:26;;;;;;;0.08;0.00;;;20.60;46.30;;;;;;4970552;28;20050;-83
2022/01/09 04:41:52;;;;;;;0.52;0.10;;;20.70;46.40;;;;;;4969673;28;20082;-82
2022/01/09 04:44:17;;;;;;;0.60;0.10;;;20.70;46.50;;;;;;4970546;28;20073;-82
2022/01/09 04:46:50;;;;;;;0.30;0.10;;;20.70;46.40;;;;;;4973051;28;20113;-82
2022/01/09 04:49:15;;;;;;;0.98;0.20;;;20.70;46.40;;;;;;4970270;28;20499;-82
2022/01/09 04:51:41;;;;;;;0.80;0.17;;;21.50;46.90;;;;;;4969990;28;20092;-82
2022/01/09 04:54:06;;;;;;;0.47;0.10;;;20.70;46.40;;;;;;4969925;28;20173;-83
2022/01/09 04:56:32;;;;;;;0.52;0.10;;;20.70;46.40;;;;;;4970317;28;20097;-82
2022/01/09 04:58:57;;;;;;;0.75;0.10;;;20.70;46.40;;;;;;4972687;28;20094;-83
2022/01/09 05:01:23;;;;;;;0.93;0.20;;;20.70;46.40;;;;;;4969695;28;20054;-82
2022/01/09 05:03:49;;;;;;;1.83;0.30;;;21.10;46.60;;;;;;4969924;28;20049;-82
2022/01/09 05:06:14;;;;;;;0.70;0.10;;;20.60;46.30;;;;;;4970197;28;20388;-82
2022/01/09 05:08:40;;;;;;;0.75;0.20;;;21.50;46.90;;;;;;4969404;28;20141;-83
2022/01/09 05:11:05;;;;;;;0.25;0.10;;;20.60;46.40;;;;;;4969167;28;20058;-82
2022/01/09 05:13:31;;;;;;;1.48;0.15;;;20.60;46.30;;;;;;4969955;28;20038;-82
2022/01/09 05:15:57;;;;;;;0.55;0.20;;;20.70;46.40;;;;;;4969252;28;20138;-84
2022/01/09 05:18:22;;;;;;;0.93;0.20;;;20.60;46.40;;;;;;4969851;28;20050;-83
2022/01/09 05:20:48;;;;;;;0.45;0.10;;;21.80;47.00;;;;;;4969810;28;20101;-83
2022/01/09 05:23:13;;;;;;;0.50;0.10;;;21.90;47.10;;;;;;4968976;28;20525;-82
2022/01/09 05:25:39;;;;;;;0.43;0.20;;;20.70;46.50;;;;;;4969856;28;20038;-84
2022/01/09 05:28:04;;;;;;;0.88;0.20;;;20.70;47.20;;;;;;4969538;28;20372;-84
2022/01/09 05:30:30;;;;;;;0.95;0.20;;;20.70;46.50;;;;;;4969226;28;20185;-84
2022/01/09 05:32:56;;;;;;;1.45;0.20;;;20.70;46.50;;;;;;4937587;28;20054;-84
2022/01/09 05:35:22;;;;;;;0.47;0.20;;;21.50;46.90;;;;;;4969470;28;20050;-84
2022/01/09 05:37:48;;;;;;;0.73;0.20;;;20.70;46.50;;;;;;4976673;23;20156;-83
2022/01/09 05:40:14;;;;;;;1.00;0.22;;;20.70;46.50;;;;;;4969820;28;20518;-83
2022/01/09 05:42:39;;;;;;;1.42;0.20;;;20.70;46.50;;;;;;4969645;28;20505;-83
2022/01/09 05:45:07;;;;;;;1.00;0.20;;;20.70;46.50;;;;;;4969048;28;20051;-84
2022/01/09 05:47:33;;;;;;;0.60;0.20;;;20.70;46.50;;;;;;4969741;28;20766;-84
2022/01/09 05:49:58;;;;;;;1.00;0.10;;;20.70;46.50;;;;;;4969529;28;20085;-84
2022/01/09 05:52:24;;;;;;;0.40;0.10;;;20.80;46.60;;;;;;4969048;28;20042;-83
2022/01/09 05:54:49;;;;;;;0.77;0.20;;;20.80;47.30;;;;;;4784067;28;20102;-83
2022/01/09 05:57:15;;;;;;;0.75;0.10;;;20.70;46.50;;;;;;4949784;29;20082;-84
2022/01/09 05:59:43;;;;;;;2.67;0.40;;;20.80;46.60;;;;;;4950285;29;20047;-84
2022/01/09 06:02:09;;;;;;;0.43;0.20;;;20.80;46.60;;;;;;4934017;29;20394;-83
2022/01/09 06:04:34;;;;;;;1.00;0.22;;;20.80;46.60;;;;;;4967698;28;20055;-83
2022/01/09 06:07:00;;;;;;;1.25;0.28;;;21.40;46.90;;;;;;4969480;28;20035;-84
2022/01/09 06:09:25;;;;;;;1.65;0.28;;;20.80;46.60;;;;;;4969289;28;20086;-84
2022/01/09 06:11:51;;;;;;;0.95;0.20;;;20.80;46.50;;;;;;4968458;28;20495;-84
2022/01/09 06:14:17;;;;;;;1.33;0.30;;;20.90;46.60;;;;;;4969329;28;20502;-83
2022/01/09 06:16:42;;;;;;;1.63;0.22;;;20.90;46.60;;;;;;4969018;28;20063;-84
2022/01/09 06:19:08;;;;;;;1.02;0.20;;;20.90;46.60;;;;;;4624997;28;10000722;-84
2022/01/09 06:21:34;;;;;;;1.60;0.20;;;20.90;46.60;;;;;;4968735;28;20078;-84
2022/01/09 06:23:59;;;;;;;0.88;0.20;;;20.90;46.50;;;;;;4972407;28;20074;-84
2022/01/09 06:26:25;;;;;;;0.50;0.20;;;21.00;46.60;;;;;;4956235;28;20082;-84
2022/01/09 06:28:50;;;;;;;0.73;0.30;;;21.00;46.60;;;;;;4972523;28;20050;-83
2022/01/09 06:31:16;;;;;;;0.65;0.13;;;21.00;46.50;;;;;;4963061;28;20094;-83
2022/01/09 06:33:41;;;;;;;2.42;0.15;;;21.00;46.60;;;;;;4954962;28;20098;-83
2022/01/09 06:36:07;;;;;;;1.45;0.30;;;21.00;46.50;;;;;;4972416;28;20054;-83
2022/01/09 06:38:32;;;;;;;0.75;0.17;;;21.00;46.60;;;;;;4962298;28;20051;-83
2022/01/09 06:40:58;;;;;;;1.13;0.20;;;21.00;46.50;;;;;;4963504;28;20089;-84
2022/01/09 06:43:24;;;;;;;0.52;0.10;;;21.10;46.60;;;;;;4968785;28;20048;-83
2022/01/09 06:45:49;;;;;;;0.98;0.10;;;21.10;46.50;;;;;;4953559;28;20055;-83
2022/01/09 06:48:15;;;;;;;0.68;0.10;;;21.10;46.50;;;;;;4961001;28;20054;-84
2022/01/09 06:50:40;;;;;;;0.90;0.20;;;21.10;46.50;;;;;;4940535;28;20435;-83
2022/01/09 06:53:06;;;;;;;0.45;0.10;;;21.10;46.60;;;;;;4963440;28;20105;-84
2022/01/09 06:55:31;;;;;;;0.98;0.20;;;21.10;46.50;;;;;;4955263;28;20047;-83
2022/01/09 06:57:57;;;;;;;0.85;0.20;;;21.20;46.60;;;;;;4972296;28;20121;-83
2022/01/09 07:00:22;;;;;;;0.40;0.25;;;21.10;46.50;;;;;;4972123;28;20050;-84
2022/01/09 07:02:48;;;;;;;1.48;0.20;;;21.10;46.40;;;;;;4971140;28;20043;-84
2022/01/09 07:05:14;;;;;;;1.38;0.30;;;21.20;46.50;;;;;;4972142;28;20466;-84
2022/01/09 07:07:39;;;;;;;1.13;0.28;;;21.20;46.50;;;;;;4969560;28;20458;-83
2022/01/09 07:10:05;;;;;;;0.80;0.10;;;21.20;46.40;;;;;;4971990;28;20058;-84
2022/01/09 07:12:31;;;;;;;1.92;0.30;;;21.20;46.40;;;;;;4972604;28;20391;-84
2022/01/09 07:14:57;;;;;;;1.25;0.30;;;21.20;46.40;;;;;;4969498;28;20062;-83
2022/01/09 07:17:22;;;;;;;0.93;0.30;;;21.20;46.30;;;;;;4971863;28;20051;-83
2022/01/09 07:19:48;;;;;;;1.52;0.30;;;21.30;46.30;;;;;;4952492;28;20064;-83
2022/01/09 07:22:13;;;;;;;4.15;0.30;;;21.20;46.30;;;;;;4932516;29;20054;-84
2022/01/09 07:24:39;;;;;;;0.70;0.20;;;21.20;46.20;;;;;;4933240;29;20050;-83
2022/01/09 07:27:05;;;;;;;0.98;0.20;;;21.20;46.20;;;;;;4933328;28;20095;-83
2022/01/09 07:29:30;;;;;;;0.90;0.20;;;21.30;46.30;;;;;;4951332;28;20623;-83
2022/01/09 07:31:56;;;;;;;0.60;0.10;;;21.20;46.20;;;;;;4952496;29;20054;-83
2022/01/09 07:34:21;;;;;;;0.70;0.20;;;21.30;46.20;;;;;;4951936;28;20487;-84
2022/01/09 07:36:47;;;;;;;1.17;0.30;;;21.20;46.20;;;;;;4951422;29;20058;-83
2022/01/09 07:39:13;;;;;;;1.13;0.20;;;21.20;46.10;;;;;;4952453;29;20040;-83
2022/01/09 07:41:39;;;;;;;1.40;0.20;;;21.20;46.10;;;;;;4952275;29;20051;-83
2022/01/09 07:44:04;;;;;;;0.65;0.20;;;21.20;46.10;;;;;;4951615;29;20058;-83
2022/01/09 07:46:30;;;;;;;1.00;0.20;;;21.20;46.10;;;;;;4952671;29;20047;-83
2022/01/09 07:48:55;;;;;;;1.10;0.20;;;21.20;46.00;;;;;;4952058;29;20074;-84
2022/01/09 07:51:21;;;;;;;0.73;0.13;;;21.20;46.10;;;;;;4940244;28;20135;-83
2022/01/09 07:53:46;;;;;;;0.85;0.20;;;21.20;46.80;;;;;;4948944;29;20176;-83
2022/01/09 07:56:12;;;;;;;0.57;0.10;;;21.20;46.00;;;;;;4952081;28;20051;-83
2022/01/09 07:58:38;;;;;;;1.00;0.20;;;21.20;46.00;;;;;;4944470;28;20058;-83
2022/01/09 08:01:03;;;;;;;0.88;0.20;;;21.20;46.00;;;;;;4971189;28;20046;-84
2022/01/09 08:03:29;;;;;;;0.70;0.20;;;21.20;46.00;;;;;;4970777;28;20224;-84
2022/01/09 08:05:55;;;;;;;0.85;0.20;;;21.20;46.00;;;;;;4970387;28;20043;-83
2022/01/09 08:08:20;;;;;;;0.70;0.20;;;21.10;46.00;;;;;;4970434;28;20051;-83
2022/01/09 08:10:46;;;;;;;0.95;0.20;;;21.10;46.00;;;;;;4970696;28;20400;-82
2022/01/09 08:13:11;;;;;;;0.85;0.30;;;22.10;46.50;;;;;;4970723;28;20049;-83
2022/01/09 08:15:37;;;;;;;1.55;0.35;;;21.10;46.00;;;;;;4970856;28;20045;-83
2022/01/09 08:18:02;;;;;;;1.13;0.22;;;21.10;46.00;;;;;;4969793;28;20054;-83
2022/01/09 08:20:28;;;;;;;0.98;0.28;;;21.10;46.00;;;;;;4970351;28;20063;-83
2022/01/09 08:22:54;;;;;;;0.75;0.20;;;21.10;46.00;;;;;;4970850;28;20074;-84
2022/01/09 08:25:19;;;;;;;1.20;0.20;;;21.10;46.10;;;;;;4970244;28;20450;-83
2022/01/09 08:27:45;;;;;;;0.73;0.10;;;21.10;46.00;;;;;;4970547;28;20051;-83
2022/01/09 08:30:11;;;;;;;1.17;0.30;;;21.10;46.00;;;;;;4970497;28;20054;-84
2022/01/09 08:32:37;;;;;;;1.08;0.20;;;21.10;46.10;;;;;;4970054;28;20094;-82
2022/01/09 08:35:03;;;;;;;1.00;0.20;;;21.10;46.00;;;;;;4971250;28;20050;-81
2022/01/09 08:37:29;;;;;;;0.98;0.30;;;21.00;46.00;;;;;;4970160;28;20113;-81
2022/01/09 08:39:54;;;;;;;1.58;0.30;;;21.00;46.00;;;;;;4969341;28;20104;-81
2022/01/09 08:42:20;;;;;;;1.30;0.50;;;21.00;46.00;;;;;;4970516;28;20130;-81
2022/01/09 08:44:46;;;;;;;1.48;0.28;;;21.10;46.00;;;;;;4951362;28;20066;-82
2022/01/09 08:47:11;;;;;;;1.23;0.20;;;21.00;46.00;;;;;;4964177;28;20046;-83
2022/01/09 08:49:37;;;;;;;1.70;0.30;;;21.00;46.00;;;;;;4950391;28;20397;-82
2022/01/09 08:52:03;;;;;;;0.55;0.10;;;21.00;46.00;;;;;;4964266;28;20058;-82
2022/01/09 08:54:29;;;;;;;1.25;0.20;;;21.00;46.00;;;;;;4969283;28;20047;-82
2022/01/09 08:56:54;;;;;;;1.20;0.28;;;21.00;46.00;;;;;;4969689;28;20534;-82
2022/01/09 08:59:20;;;;;;;1.77;0.43;;;21.00;46.00;;;;;;4970133;28;20047;-82
2022/01/09 09:01:45;;;;;;;1.65;0.25;;;21.00;46.00;;;;;;4968745;28;20134;-82
2022/01/09 09:04:11;;;;;;;1.45;0.30;;;21.00;46.00;;;;;;4969972;28;20058;-81
2022/01/09 09:06:37;;;;;;;0.93;0.20;;;21.00;46.00;;;;;;4964542;28;20042;-82
2022/01/09 09:09:02;;;;;;;2.20;0.30;;;21.00;46.10;;;;;;4965706;28;20086;-82
2022/01/09 09:11:28;;;;;;;1.75;0.30;;;21.00;46.10;;;;;;4969346;28;20545;-82
2022/01/09 09:13:54;;;;;;;1.90;0.35;;;21.00;46.10;;;;;;4969441;28;20046;-82
2022/01/09 09:16:19;;;;;;;2.22;0.40;;;21.00;46.10;;;;;;4966574;28;20520;-82
2022/01/09 09:18:47;;;;;;;1.35;0.40;;;21.00;46.10;;;;;;4968152;28;20035;-83
2022/01/09 09:21:13;;;;;;;2.45;0.40;;;21.00;46.20;;;;;;4968274;28;20137;-82
2022/01/09 09:23:38;;;;;;;2.60;0.40;;;21.00;46.20;;;;;;4960767;28;20146;-83
2022/01/09 09:26:04;;;;;;;3.03;0.45;;;21.00;46.20;;;;;;4969642;28;20050;-82
2022/01/09 09:28:29;;;;;;;2.15;0.40;;;21.00;46.20;;;;;;4952415;28;20058;-83
2022/01/09 09:30:55;;;;;;;2.25;0.50;;;21.00;46.20;;;;;;4969141;28;20506;-82
2022/01/09 09:33:20;;;;;;;1.23;0.47;;;20.90;46.20;;;;;;4969059;28;20454;-82
2022/01/09 09:35:46;;;;;;;1.02;0.30;;;21.00;46.20;;;;;;4962606;28;20055;-83
2022/01/09 09:38:11;;;;;;;2.92;0.40;;;21.00;46.20;;;;;;4949736;29;20063;-83
2022/01/09 09:40:37;;;;;;;2.20;0.40;;;22.50;47.00;;;;;;4949720;28;20138;-83
2022/01/09 09:43:02;;;;;;;2.08;0.60;;;21.00;46.20;;;;;;4939433;28;20733;-83
2022/01/09 09:45:28;;;;;;;1.45;0.30;;;21.00;46.20;;;;;;4965224;28;20086;-83
2022/01/09 09:47:54;;;;;;;2.50;0.57;;;21.00;46.20;;;;;;4951705;28;20522;-83
2022/01/09 09:50:20;;;;;;;1.33;0.30;;;21.00;46.20;;;;;;4968466;28;20049;-82
2022/01/09 09:52:46;;;;;;;2.38;0.50;;;21.00;46.30;;;;;;4963288;28;20051;-82
2022/01/09 09:55:11;;;;;;;1.85;0.35;;;21.00;46.20;;;;;;4954839;28;20058;-82
2022/01/09 09:57:37;;;;;;;1.73;0.40;;;21.00;46.20;;;;;;4964212;28;20062;-83
2022/01/09 10:00:09;;;;;;;3.63;0.50;;;21.00;46.30;;;;;;4972533;28;20053;-83
2022/01/09 10:02:48;;;;;;;1.95;0.30;;;21.00;46.30;;;;;;4972908;28;20074;-83
2022/01/09 10:05:15;;;;;;;2.75;0.30;;;21.00;47.00;;;;;;4972534;28;20507;-83
2022/01/09 10:07:41;;;;;;;1.77;0.30;;;21.00;46.30;;;;;;4973182;28;20483;-83
2022/01/09 10:10:14;;;;;;;2.25;0.28;;;22.70;47.20;;;;;;4972840;28;20047;-83
2022/01/09 10:12:40;;;;;;;1.73;0.40;;;21.10;46.40;;;;;;4971623;28;20402;-83
2022/01/09 10:15:10;;;;;;;2.17;0.40;;;21.10;46.40;;;;;;4970774;28;20054;-83
2022/01/09 10:17:57;;;;;;;2.42;0.60;;;21.10;46.30;;;;;;4970175;28;20082;-82
2022/01/09 10:20:23;;;;;;;2.28;0.38;;;21.10;46.30;;;;;;4958540;28;20925;-77
2022/01/09 10:22:50;;;;;;;2.35;0.57;;;21.10;46.50;;;;;;4973239;28;20047;-86
2022/01/09 10:25:17;;;;;;;3.83;0.50;;;21.10;46.60;;;;;;4974711;28;20055;-91
2022/01/09 10:27:43;;;;;;;5.47;0.50;;;21.10;46.40;;;;;;4974163;28;20050;-90
2022/01/09 10:30:11;;;;;;;1.95;0.57;;;21.10;46.40;;;;;;4975648;28;20045;-92
2022/01/09 10:32:57;;;;;;;3.00;0.75;;;21.10;46.40;;;;;;4965238;28;20050;-90
2022/01/09 10:35:23;;;;;;;2.28;0.35;;;21.00;46.20;;;;;;4971629;28;20047;-89
2022/01/09 10:37:50;;;;;;;6.63;1.65;;;21.10;46.50;;;;;;4956156;28;20095;-92
2022/01/09 10:40:30;;;;;;;5.88;1.48;;;21.10;46.10;;;;;;4956443;28;20043;-87
2022/01/09 10:43:13;;;;;;;11.70;7.50;;;20.90;47.40;;;;;;4939639;29;20040;-85
2022/01/09 10:45:58;;;;;;;13.32;8.10;;;21.00;47.00;;;;;;4952977;28;20062;-84
2022/01/09 10:48:34;;;;;;;13.20;7.85;;;21.00;48.10;;;;;;4952997;28;20129;-85
2022/01/09 10:51:00;;;;;;;12.88;6.93;;;20.90;47.20;;;;;;4954157;28;20753;-87
2022/01/09 10:53:30;;;;;;;11.48;6.90;;;20.90;47.30;;;;;;4966741;28;20039;-87
2022/01/09 10:56:06;;;;;;;10.02;6.57;;;21.00;47.20;;;;;;4953715;28;20039;-85
2022/01/09 10:58:34;;;;;;;9.32;5.63;;;21.00;47.10;;;;;;4743933;28;5001833;-86
2022/01/09 11:01:14;;;;;;;9.00;5.18;;;21.00;47.00;;;;;;4966807;28;20039;-86
2022/01/09 11:03:41;;;;;;;9.60;5.85;;;21.00;46.90;;;;;;4952621;28;20098;-87
2022/01/09 11:06:07;;;;;;;9.15;4.93;;;21.00;46.80;;;;;;4952680;28;20495;-86
2022/01/09 11:08:36;;;;;;;7.63;4.90;;;21.00;46.70;;;;;;4909948;28;20056;-86
2022/01/09 11:11:06;;;;;;;7.88;4.80;;;20.90;46.60;;;;;;4920653;29;20044;-87
2022/01/09 11:13:31;;;;;;;8.82;4.38;;;22.20;47.20;;;;;;4929381;29;20081;-87
2022/01/09 11:18:42;;;;;;;9.10;5.28;;;20.90;46.40;;;;;;4927694;29;20056;-87
2022/01/09 11:21:08;;;;;;;10.45;5.82;;;20.90;46.40;;;;;;4923570;29;20047;-87
2022/01/09 11:23:52;;;;;;;7.82;4.55;;;20.90;46.30;;;;;;4924133;29;20055;-88
2022/01/09 11:26:18;;;;;;;6.88;4.53;;;20.90;46.30;;;;;;4908702;29;20127;-88
2022/01/09 11:28:43;;;;;;;8.27;4.32;;;20.90;47.00;;;;;;4916661;29;20157;-87
2022/01/09 11:31:14;;;;;;;8.50;4.63;;;20.90;46.20;;;;;;4917767;29;20048;-87
2022/01/09 11:34:04;;;;;;;7.60;3.85;;;20.90;46.20;;;;;;4917557;29;20056;-86
2022/01/09 11:36:45;;;;;;;7.50;4.20;;;20.90;46.10;;;;;;4918589;29;20151;-87
2022/01/09 11:39:16;;;;;;;8.18;4.57;;;20.90;46.10;;;;;;4917645;29;20087;-86
2022/01/09 11:41:43;;;;;;;6.60;3.90;;;20.90;46.00;;;;;;4917442;29;20052;-87
2022/01/09 11:44:10;;;;;;;9.30;4.20;;;20.90;46.00;;;;;;4932513;29;20051;-87
2022/01/09 11:47:05;;;;;;;7.72;4.10;;;20.90;46.00;;;;;;4938184;28;20058;-88
2022/01/09 11:49:38;;;;;;;7.80;4.25;;;20.90;46.00;;;;;;4932458;29;20119;-86
2022/01/09 11:52:04;;;;;;;6.93;4.15;;;20.90;46.00;;;;;;4935598;29;20059;-87
2022/01/09 11:54:48;;;;;;;7.72;4.35;;;20.90;45.90;;;;;;4932691;29;20051;-87
2022/01/09 11:57:20;;;;;;;6.35;3.63;;;20.90;45.80;;;;;;4918532;29;20515;-87
2022/01/09 11:59:48;;;;;;;7.68;3.83;;;20.90;45.80;;;;;;4918077;29;20048;-86
2022/01/09 12:02:16;;;;;;;6.63;3.55;;;20.90;45.80;;;;;;4933101;29;20056;-88
2022/01/09 12:04:42;;;;;;;8.15;3.80;;;20.90;45.80;;;;;;4952629;28;20419;-87
2022/01/09 12:07:12;;;;;;;6.95;4.15;;;20.90;45.70;;;;;;4970401;28;20050;-86
2022/01/09 12:09:41;;;;;;;7.13;3.55;;;20.90;45.80;;;;;;4970183;28;20682;-86
2022/01/09 12:12:20;;;;;;;7.85;3.50;;;20.80;45.70;;;;;;4969613;28;20059;-86
2022/01/09 12:14:51;;;;;;;6.13;3.03;;;20.90;45.70;;;;;;4971026;28;20047;-86
2022/01/09 12:17:26;;;;;;;6.90;3.65;;;20.80;45.70;;;;;;4970034;28;20051;-86
2022/01/09 12:20:04;;;;;;;6.25;3.20;;;21.60;46.10;;;;;;4969291;28;20059;-86
2022/01/09 12:22:39;;;;;;;6.82;3.25;;;20.80;45.70;;;;;;4624146;28;10008688;-88
2022/01/09 12:25:32;;;;;;;5.72;2.97;;;21.60;46.10;;;;;;4967214;28;20414;-88
2022/01/09 12:28:24;;;;;;;6.35;3.30;;;20.90;45.70;;;;;;4970923;28;20054;-87
2022/01/09 12:30:58;;;;;;;5.85;2.88;;;20.90;45.70;;;;;;4971087;28;20062;-88
2022/01/09 12:33:27;;;;;;;5.35;2.85;;;20.80;45.60;;;;;;4970447;28;20046;-87
2022/01/09 12:36:03;;;;;;;5.35;2.78;;;20.80;45.70;;;;;;4971194;28;20062;-90
2022/01/09 12:38:31;;;;;;;6.22;3.10;;;20.80;45.70;;;;;;4966939;28;20130;-87
2022/01/09 12:41:01;;;;;;;6.05;3.05;;;20.80;45.70;;;;;;4958678;28;20077;-87
2022/01/09 12:43:27;;;;;;;6.13;3.38;;;20.90;46.40;;;;;;4969329;28;20491;-88
2022/01/09 12:45:52;;;;;;;5.78;2.70;;;21.10;45.90;;;;;;4966709;28;20053;-86
2022/01/09 12:48:28;;;;;;;5.75;2.90;;;20.90;45.80;;;;;;4951071;28;20047;-88
2022/01/09 12:50:55;;;;;;;4.82;2.42;;;20.90;45.80;;;;;;4951104;28;20098;-87
2022/01/09 12:53:29;;;;;;;5.60;2.85;;;20.90;45.80;;;;;;4950485;28;20063;-89